sensor_id;sensor_type;location;lat;lon;timestamp;P1;durP1;ratioP1;P2;durP2;ratioP2
81896;SDS011;71360;43.506;1.500;2024-01-25T00:01:25;8.60;;;4.30;;
81896;SDS011;71360;43.506;1.500;2024-01-25T00:03:50;9.87;;;6.27;;
81896;SDS011;71360;43.506;1.500;2024-01-25T00:06:16;11.17;;;7.10;;
81896;SDS011;71360;43.506;1.500;2024-01-25T00:08:41;14.27;;;8.13;;
81896;SDS011;71360;43.506;1.500;2024-01-25T00:11:06;14.60;;;9.43;;
81896;SDS011;71360;43.506;1.500;2024-01-25T00:13:32;14.23;;;8.40;;
81896;SDS011;71360;43.506;1.500;2024-01-25T00:15:57;11.10;;;6.90;;
81896;SDS011;71360;43.506;1.500;2024-01-25T00:18:23;12.30;;;7.05;;
81896;SDS011;71360;43.506;1.500;2024-01-25T00:20:48;12.90;;;7.13;;
81896;SDS011;71360;43.506;1.500;2024-01-25T00:23:14;13.05;;;8.13;;
81896;SDS011;71360;43.506;1.500;2024-01-25T00:25:40;12.37;;;7.73;;
81896;SDS011;71360;43.506;1.500;2024-01-25T00:28:05;12.93;;;7.20;;
81896;SDS011;71360;43.506;1.500;2024-01-25T00:30:31;12.43;;;6.75;;
81896;SDS011;71360;43.506;1.500;2024-01-25T00:32:56;13.37;;;7.40;;
81896;SDS011;71360;43.506;1.500;2024-01-25T00:35:22;13.80;;;7.40;;
81896;SDS011;71360;43.506;1.500;2024-01-25T00:37:49;13.90;;;8.20;;
81896;SDS011;71360;43.506;1.500;2024-01-25T00:40:14;17.35;;;9.73;;
81896;SDS011;71360;43.506;1.500;2024-01-25T00:42:41;22.10;;;13.82;;
81896;SDS011;71360;43.506;1.500;2024-01-25T00:45:09;23.53;;;13.90;;
81896;SDS011;71360;43.506;1.500;2024-01-25T00:47:35;21.35;;;13.25;;
81896;SDS011;71360;43.506;1.500;2024-01-25T00:50:01;21.52;;;13.43;;
81896;SDS011;71360;43.506;1.500;2024-01-25T00:52:26;25.87;;;15.70;;
81896;SDS011;71360;43.506;1.500;2024-01-25T00:54:52;26.30;;;16.10;;
81896;SDS011;71360;43.506;1.500;2024-01-25T00:57:18;30.35;;;17.73;;
81896;SDS011;71360;43.506;1.500;2024-01-25T00:59:44;28.50;;;17.47;;
81896;SDS011;71360;43.506;1.500;2024-01-25T01:02:11;31.50;;;19.38;;
81896;SDS011;71360;43.506;1.500;2024-01-25T01:04:38;32.03;;;19.50;;
81896;SDS011;71360;43.506;1.500;2024-01-25T01:07:04;32.23;;;19.33;;
81896;SDS011;71360;43.506;1.500;2024-01-25T01:09:30;32.88;;;17.92;;
81896;SDS011;71360;43.506;1.500;2024-01-25T01:11:55;31.97;;;17.17;;
81896;SDS011;71360;43.506;1.500;2024-01-25T01:14:21;27.47;;;14.53;;
81896;SDS011;71360;43.506;1.500;2024-01-25T01:16:46;31.53;;;20.47;;
81896;SDS011;71360;43.506;1.500;2024-01-25T01:19:12;36.78;;;21.95;;
81896;SDS011;71360;43.506;1.500;2024-01-25T01:21:37;38.07;;;20.93;;
81896;SDS011;71360;43.506;1.500;2024-01-25T01:24:03;70.72;;;22.23;;
81896;SDS011;71360;43.506;1.500;2024-01-25T01:26:29;79.33;;;21.73;;
81896;SDS011;71360;43.506;1.500;2024-01-25T01:28:55;38.78;;;20.73;;
81896;SDS011;71360;43.506;1.500;2024-01-25T01:31:20;123.03;;;20.90;;
81896;SDS011;71360;43.506;1.500;2024-01-25T01:33:46;197.30;;;20.33;;
81896;SDS011;71360;43.506;1.500;2024-01-25T01:36:11;89.68;;;19.45;;
81896;SDS011;71360;43.506;1.500;2024-01-25T01:38:38;34.55;;;17.23;;
81896;SDS011;71360;43.506;1.500;2024-01-25T01:41:04;133.93;;;16.37;;
81896;SDS011;71360;43.506;1.500;2024-01-25T01:43:29;139.07;;;17.43;;
81896;SDS011;71360;43.506;1.500;2024-01-25T01:45:55;180.07;;;19.63;;
81896;SDS011;71360;43.506;1.500;2024-01-25T01:48:29;129.55;;;18.23;;
81896;SDS011;71360;43.506;1.500;2024-01-25T01:50:55;50.05;;;17.33;;
81896;SDS011;71360;43.506;1.500;2024-01-25T01:53:20;30.27;;;17.40;;
81896;SDS011;71360;43.506;1.500;2024-01-25T01:55:46;46.95;;;17.60;;
81896;SDS011;71360;43.506;1.500;2024-01-25T01:58:12;26.15;;;16.83;;
81896;SDS011;71360;43.506;1.500;2024-01-25T02:00:38;34.10;;;17.58;;
81896;SDS011;71360;43.506;1.500;2024-01-25T02:03:06;53.23;;;18.20;;
81896;SDS011;71360;43.506;1.500;2024-01-25T02:05:31;24.08;;;14.85;;
81896;SDS011;71360;43.506;1.500;2024-01-25T02:07:57;20.77;;;13.40;;
81896;SDS011;71360;43.506;1.500;2024-01-25T02:10:22;25.88;;;13.40;;
81896;SDS011;71360;43.506;1.500;2024-01-25T02:12:48;22.70;;;13.80;;
81896;SDS011;71360;43.506;1.500;2024-01-25T02:15:13;22.10;;;13.60;;
81896;SDS011;71360;43.506;1.500;2024-01-25T02:17:39;45.17;;;14.40;;
81896;SDS011;71360;43.506;1.500;2024-01-25T02:20:06;32.53;;;14.30;;
81896;SDS011;71360;43.506;1.500;2024-01-25T02:22:32;47.35;;;12.90;;
81896;SDS011;71360;43.506;1.500;2024-01-25T02:24:57;25.07;;;11.93;;
81896;SDS011;71360;43.506;1.500;2024-01-25T02:27:23;36.77;;;11.63;;
81896;SDS011;71360;43.506;1.500;2024-01-25T02:29:48;19.63;;;11.10;;
81896;SDS011;71360;43.506;1.500;2024-01-25T02:32:14;40.03;;;10.60;;
81896;SDS011;71360;43.506;1.500;2024-01-25T02:34:39;114.30;;;12.13;;
81896;SDS011;71360;43.506;1.500;2024-01-25T02:37:04;52.35;;;10.05;;
81896;SDS011;71360;43.506;1.500;2024-01-25T02:39:30;27.10;;;9.47;;
81896;SDS011;71360;43.506;1.500;2024-01-25T02:41:56;75.03;;;9.43;;
81896;SDS011;71360;43.506;1.500;2024-01-25T02:44:21;48.70;;;8.75;;
81896;SDS011;71360;43.506;1.500;2024-01-25T02:46:47;38.93;;;8.53;;
81896;SDS011;71360;43.506;1.500;2024-01-25T02:49:12;35.93;;;7.97;;
81896;SDS011;71360;43.506;1.500;2024-01-25T02:51:38;52.33;;;8.20;;
81896;SDS011;71360;43.506;1.500;2024-01-25T02:54:03;14.43;;;7.20;;
81896;SDS011;71360;43.506;1.500;2024-01-25T02:56:29;30.73;;;7.50;;
81896;SDS011;71360;43.506;1.500;2024-01-25T02:59:00;80.07;;;7.93;;
81896;SDS011;71360;43.506;1.500;2024-01-25T03:01:26;40.65;;;7.25;;
81896;SDS011;71360;43.506;1.500;2024-01-25T03:03:58;24.92;;;7.38;;
81896;SDS011;71360;43.506;1.500;2024-01-25T03:06:27;100.97;;;8.25;;
81896;SDS011;71360;43.506;1.500;2024-01-25T03:08:52;13.00;;;6.53;;
81896;SDS011;71360;43.506;1.500;2024-01-25T03:11:36;17.73;;;6.40;;
81896;SDS011;71360;43.506;1.500;2024-01-25T03:14:05;62.30;;;6.75;;
81896;SDS011;71360;43.506;1.500;2024-01-25T03:19:29;46.50;;;6.53;;
81896;SDS011;71360;43.506;1.500;2024-01-25T03:54:19;33.17;;;5.30;;
81896;SDS011;71360;43.506;1.500;2024-01-25T03:59:22;33.60;;;5.47;;
81896;SDS011;71360;43.506;1.500;2024-01-25T04:15:50;123.07;;;6.70;;
81896;SDS011;71360;43.506;1.500;2024-01-25T04:18:16;18.48;;;5.53;;
81896;SDS011;71360;43.506;1.500;2024-01-25T04:20:43;10.40;;;5.03;;
81896;SDS011;71360;43.506;1.500;2024-01-25T04:23:09;69.37;;;5.90;;
81896;SDS011;71360;43.506;1.500;2024-01-25T04:25:34;27.80;;;5.93;;
81896;SDS011;71360;43.506;1.500;2024-01-25T04:28:00;10.50;;;5.73;;
81896;SDS011;71360;43.506;1.500;2024-01-25T04:30:27;30.85;;;5.38;;
81896;SDS011;71360;43.506;1.500;2024-01-25T04:32:52;11.37;;;5.37;;
81896;SDS011;71360;43.506;1.500;2024-01-25T04:35:18;10.33;;;5.10;;
81896;SDS011;71360;43.506;1.500;2024-01-25T04:37:43;78.82;;;5.60;;
81896;SDS011;71360;43.506;1.500;2024-01-25T04:40:09;52.13;;;5.50;;
81896;SDS011;71360;43.506;1.500;2024-01-25T04:42:34;67.82;;;6.35;;
81896;SDS011;71360;43.506;1.500;2024-01-25T04:45:00;8.83;;;5.23;;
81896;SDS011;71360;43.506;1.500;2024-01-25T04:47:25;28.73;;;5.87;;
81896;SDS011;71360;43.506;1.500;2024-01-25T04:49:51;25.70;;;5.47;;
81896;SDS011;71360;43.506;1.500;2024-01-25T04:52:16;45.33;;;5.90;;
81896;SDS011;71360;43.506;1.500;2024-01-25T04:54:42;35.83;;;5.80;;
81896;SDS011;71360;43.506;1.500;2024-01-25T04:57:07;19.87;;;5.97;;
81896;SDS011;71360;43.506;1.500;2024-01-25T04:59:33;39.53;;;6.32;;
81896;SDS011;71360;43.506;1.500;2024-01-25T05:01:59;15.17;;;5.60;;
81896;SDS011;71360;43.506;1.500;2024-01-25T05:04:24;159.27;;;7.07;;
81896;SDS011;71360;43.506;1.500;2024-01-25T05:06:50;86.30;;;5.93;;
81896;SDS011;71360;43.506;1.500;2024-01-25T05:09:15;15.90;;;5.28;;
81896;SDS011;71360;43.506;1.500;2024-01-25T05:11:41;52.17;;;5.47;;
81896;SDS011;71360;43.506;1.500;2024-01-25T05:14:06;56.20;;;5.30;;
81896;SDS011;71360;43.506;1.500;2024-01-25T05:16:32;80.80;;;5.78;;
81896;SDS011;71360;43.506;1.500;2024-01-25T05:18:58;178.90;;;6.57;;
81896;SDS011;71360;43.506;1.500;2024-01-25T05:21:23;18.58;;;4.65;;
81896;SDS011;71360;43.506;1.500;2024-01-25T05:23:49;14.63;;;4.97;;
81896;SDS011;71360;43.506;1.500;2024-01-25T05:26:15;75.63;;;5.37;;
81896;SDS011;71360;43.506;1.500;2024-01-25T05:28:40;43.58;;;5.30;;
81896;SDS011;71360;43.506;1.500;2024-01-25T05:31:06;68.77;;;5.57;;
81896;SDS011;71360;43.506;1.500;2024-01-25T05:33:37;145.73;;;5.82;;
81896;SDS011;71360;43.506;1.500;2024-01-25T05:36:06;84.72;;;5.00;;
81896;SDS011;71360;43.506;1.500;2024-01-25T05:38:31;81.70;;;5.00;;
81896;SDS011;71360;43.506;1.500;2024-01-25T05:40:57;11.73;;;4.10;;
81896;SDS011;71360;43.506;1.500;2024-01-25T05:43:23;77.77;;;5.27;;
81896;SDS011;71360;43.506;1.500;2024-01-25T05:45:48;138.35;;;5.93;;
81896;SDS011;71360;43.506;1.500;2024-01-25T05:48:14;101.97;;;5.87;;
81896;SDS011;71360;43.506;1.500;2024-01-25T05:50:39;135.63;;;5.73;;
81896;SDS011;71360;43.506;1.500;2024-01-25T05:53:05;35.83;;;4.75;;
81896;SDS011;71360;43.506;1.500;2024-01-25T05:55:31;121.67;;;5.20;;
81896;SDS011;71360;43.506;1.500;2024-01-25T05:57:56;97.63;;;5.37;;
81896;SDS011;71360;43.506;1.500;2024-01-25T06:00:21;210.63;;;6.37;;
81896;SDS011;71360;43.506;1.500;2024-01-25T06:02:47;76.80;;;4.70;;
81896;SDS011;71360;43.506;1.500;2024-01-25T06:05:13;320.15;;;8.00;;
81896;SDS011;71360;43.506;1.500;2024-01-25T06:07:38;204.80;;;6.13;;
81896;SDS011;71360;43.506;1.500;2024-01-25T06:10:05;15.95;;;3.60;;
81896;SDS011;71360;43.506;1.500;2024-01-25T06:12:31;321.88;;;8.30;;
81896;SDS011;71360;43.506;1.500;2024-01-25T06:18:18;113.00;;;5.15;;
81896;SDS011;71360;43.506;1.500;2024-01-25T06:20:43;6.57;;;3.30;;
81896;SDS011;71360;43.506;1.500;2024-01-25T06:23:09;211.63;;;7.47;;
81896;SDS011;71360;43.506;1.500;2024-01-25T06:25:34;53.87;;;5.80;;
81896;SDS011;71360;43.506;1.500;2024-01-25T06:28:01;262.58;;;7.90;;
81896;SDS011;71360;43.506;1.500;2024-01-25T06:30:27;248.75;;;7.25;;
81896;SDS011;71360;43.506;1.500;2024-01-25T06:32:52;87.57;;;4.83;;
81896;SDS011;71360;43.506;1.500;2024-01-25T06:35:18;193.63;;;5.90;;
81896;SDS011;71360;43.506;1.500;2024-01-25T06:37:43;194.60;;;6.40;;
81896;SDS011;71360;43.506;1.500;2024-01-25T06:40:09;19.33;;;3.90;;
81896;SDS011;71360;43.506;1.500;2024-01-25T06:42:35;40.90;;;4.10;;
81896;SDS011;71360;43.506;1.500;2024-01-25T06:45:00;70.17;;;4.70;;
81896;SDS011;71360;43.506;1.500;2024-01-25T06:47:25;85.13;;;4.23;;
81896;SDS011;71360;43.506;1.500;2024-01-25T06:49:51;123.55;;;4.68;;
81896;SDS011;71360;43.506;1.500;2024-01-25T06:52:17;145.73;;;5.70;;
81896;SDS011;71360;43.506;1.500;2024-01-25T06:54:43;230.55;;;6.80;;
81896;SDS011;71360;43.506;1.500;2024-01-25T06:57:09;167.57;;;6.23;;
81896;SDS011;71360;43.506;1.500;2024-01-25T06:59:34;184.57;;;6.60;;
81896;SDS011;71360;43.506;1.500;2024-01-25T07:02:00;120.95;;;5.72;;
81896;SDS011;71360;43.506;1.500;2024-01-25T07:04:27;207.33;;;6.27;;
81896;SDS011;71360;43.506;1.500;2024-01-25T07:06:53;48.70;;;4.07;;
81896;SDS011;71360;43.506;1.500;2024-01-25T07:09:18;47.80;;;4.00;;
81896;SDS011;71360;43.506;1.500;2024-01-25T07:11:44;75.93;;;4.40;;
81896;SDS011;71360;43.506;1.500;2024-01-25T07:17:31;50.83;;;3.90;;
81896;SDS011;71360;43.506;1.500;2024-01-25T07:23:20;131.55;;;4.70;;
81896;SDS011;71360;43.506;1.500;2024-01-25T07:25:46;19.40;;;3.30;;
81896;SDS011;71360;43.506;1.500;2024-01-25T07:28:12;38.77;;;3.30;;
81896;SDS011;71360;43.506;1.500;2024-01-25T07:30:37;47.03;;;3.00;;
81896;SDS011;71360;43.506;1.500;2024-01-25T07:33:03;78.77;;;3.43;;
81896;SDS011;71360;43.506;1.500;2024-01-25T07:35:28;83.75;;;3.60;;
81896;SDS011;71360;43.506;1.500;2024-01-25T07:37:54;84.37;;;3.53;;
81896;SDS011;71360;43.506;1.500;2024-01-25T07:40:19;176.17;;;4.57;;
81896;SDS011;71360;43.506;1.500;2024-01-25T07:42:46;93.43;;;3.58;;
81896;SDS011;71360;43.506;1.500;2024-01-25T07:45:12;131.87;;;4.33;;
81896;SDS011;71360;43.506;1.500;2024-01-25T07:47:40;84.60;;;3.70;;
81896;SDS011;71360;43.506;1.500;2024-01-25T07:50:06;83.40;;;4.22;;
81896;SDS011;71360;43.506;1.500;2024-01-25T07:52:32;37.67;;;3.70;;
81896;SDS011;71360;43.506;1.500;2024-01-25T07:58:19;27.88;;;3.83;;
81896;SDS011;71360;43.506;1.500;2024-01-25T08:00:45;26.23;;;4.13;;
81896;SDS011;71360;43.506;1.500;2024-01-25T08:03:10;105.47;;;5.87;;
81896;SDS011;71360;43.506;1.500;2024-01-25T08:05:36;215.83;;;8.60;;
81896;SDS011;71360;43.506;1.500;2024-01-25T08:08:02;99.28;;;6.72;;
81896;SDS011;71360;43.506;1.500;2024-01-25T08:10:27;158.87;;;8.40;;
81896;SDS011;71360;43.506;1.500;2024-01-25T08:12:53;127.07;;;7.83;;
81896;SDS011;71360;43.506;1.500;2024-01-25T08:15:18;18.83;;;5.90;;
81896;SDS011;71360;43.506;1.500;2024-01-25T08:17:44;50.63;;;5.43;;
81896;SDS011;71360;43.506;1.500;2024-01-25T08:20:10;277.00;;;8.75;;
81896;SDS011;71360;43.506;1.500;2024-01-25T08:22:38;177.43;;;7.40;;
81896;SDS011;71360;43.506;1.500;2024-01-25T08:25:03;264.90;;;8.37;;
81896;SDS011;71360;43.506;1.500;2024-01-25T08:27:30;268.75;;;8.68;;
81896;SDS011;71360;43.506;1.500;2024-01-25T08:29:55;133.10;;;6.10;;
81896;SDS011;71360;43.506;1.500;2024-01-25T08:32:21;201.83;;;7.30;;
81896;SDS011;71360;43.506;1.500;2024-01-25T08:34:47;246.55;;;8.65;;
81896;SDS011;71360;43.506;1.500;2024-01-25T08:37:12;195.37;;;7.73;;
81896;SDS011;71360;43.506;1.500;2024-01-25T08:39:38;280.40;;;8.55;;
81896;SDS011;71360;43.506;1.500;2024-01-25T08:42:03;209.13;;;8.13;;
81896;SDS011;71360;43.506;1.500;2024-01-25T08:44:31;49.67;;;5.90;;
81896;SDS011;71360;43.506;1.500;2024-01-25T08:46:57;204.15;;;7.50;;
81896;SDS011;71360;43.506;1.500;2024-01-25T08:49:23;204.67;;;7.07;;
81896;SDS011;71360;43.506;1.500;2024-01-25T08:51:48;276.42;;;8.30;;
81896;SDS011;71360;43.506;1.500;2024-01-25T08:54:14;209.80;;;7.83;;
81896;SDS011;71360;43.506;1.500;2024-01-25T08:56:39;147.20;;;6.80;;
81896;SDS011;71360;43.506;1.500;2024-01-25T08:59:05;68.15;;;5.60;;
81896;SDS011;71360;43.506;1.500;2024-01-25T09:01:30;250.77;;;8.50;;
81896;SDS011;71360;43.506;1.500;2024-01-25T09:03:56;208.03;;;8.13;;
81896;SDS011;71360;43.506;1.500;2024-01-25T09:06:27;203.55;;;9.05;;
81896;SDS011;71360;43.506;1.500;2024-01-25T09:08:52;80.10;;;6.93;;
81896;SDS011;71360;43.506;1.500;2024-01-25T09:11:18;218.07;;;7.78;;
81896;SDS011;71360;43.506;1.500;2024-01-25T09:13:44;47.67;;;5.65;;
81896;SDS011;71360;43.506;1.500;2024-01-25T09:16:12;124.75;;;6.50;;
81896;SDS011;71360;43.506;1.500;2024-01-25T09:18:38;392.80;;;10.17;;
81896;SDS011;71360;43.506;1.500;2024-01-25T09:21:03;206.73;;;8.23;;
81896;SDS011;71360;43.506;1.500;2024-01-25T09:23:29;520.90;;;12.47;;
81896;SDS011;71360;43.506;1.500;2024-01-25T09:25:54;568.93;;;12.80;;
81896;SDS011;71360;43.506;1.500;2024-01-25T09:28:20;351.70;;;11.57;;
81896;SDS011;71360;43.506;1.500;2024-01-25T09:30:45;274.45;;;10.93;;
81896;SDS011;71360;43.506;1.500;2024-01-25T09:33:11;401.10;;;12.20;;
81896;SDS011;71360;43.506;1.500;2024-01-25T09:35:37;489.58;;;13.23;;
81896;SDS011;71360;43.506;1.500;2024-01-25T09:38:02;421.43;;;12.03;;
81896;SDS011;71360;43.506;1.500;2024-01-25T09:40:28;291.40;;;11.07;;
81896;SDS011;71360;43.506;1.500;2024-01-25T09:42:54;265.50;;;10.02;;
81896;SDS011;71360;43.506;1.500;2024-01-25T09:45:19;233.50;;;8.47;;
81896;SDS011;71360;43.506;1.500;2024-01-25T09:47:45;522.17;;;13.05;;
81896;SDS011;71360;43.506;1.500;2024-01-25T09:50:11;463.83;;;12.10;;
81896;SDS011;71360;43.506;1.500;2024-01-25T09:52:37;146.63;;;7.07;;
81896;SDS011;71360;43.506;1.500;2024-01-25T09:55:04;131.65;;;7.25;;
81896;SDS011;71360;43.506;1.500;2024-01-25T09:57:32;370.37;;;10.27;;
81896;SDS011;71360;43.506;1.500;2024-01-25T10:00:04;291.02;;;11.07;;
81896;SDS011;71360;43.506;1.500;2024-01-25T10:02:30;44.63;;;8.18;;
81896;SDS011;71360;43.506;1.500;2024-01-25T10:04:56;114.63;;;8.03;;
81896;SDS011;71360;43.506;1.500;2024-01-25T10:07:43;289.52;;;9.32;;
81896;SDS011;71360;43.506;1.500;2024-01-25T10:10:12;112.65;;;7.95;;
81896;SDS011;71360;43.506;1.500;2024-01-25T10:12:39;215.05;;;9.07;;
81896;SDS011;71360;43.506;1.500;2024-01-25T10:15:09;72.17;;;7.37;;
81896;SDS011;71360;43.506;1.500;2024-01-25T10:17:35;219.05;;;10.27;;
81896;SDS011;71360;43.506;1.500;2024-01-25T10:20:01;54.73;;;9.00;;
81896;SDS011;71360;43.506;1.500;2024-01-25T10:22:26;46.83;;;8.70;;
81896;SDS011;71360;43.506;1.500;2024-01-25T10:28:14;36.72;;;9.63;;
81896;SDS011;71360;43.506;1.500;2024-01-25T10:34:01;25.37;;;9.60;;
81896;SDS011;71360;43.506;1.500;2024-01-25T10:36:27;17.25;;;9.15;;
81896;SDS011;71360;43.506;1.500;2024-01-25T10:38:56;18.75;;;9.32;;
81896;SDS011;71360;43.506;1.500;2024-01-25T10:41:26;19.73;;;9.82;;
81896;SDS011;71360;43.506;1.500;2024-01-25T10:47:30;26.55;;;9.70;;
81896;SDS011;71360;43.506;1.500;2024-01-25T10:50:13;163.70;;;9.38;;
81896;SDS011;71360;43.506;1.500;2024-01-25T10:52:59;57.25;;;8.93;;
81896;SDS011;71360;43.506;1.500;2024-01-25T10:55:32;18.75;;;9.10;;
81896;SDS011;71360;43.506;1.500;2024-01-25T11:01:29;209.65;;;10.45;;
81896;SDS011;71360;43.506;1.500;2024-01-25T11:07:16;184.80;;;10.32;;
81896;SDS011;71360;43.506;1.500;2024-01-25T11:09:42;41.00;;;9.33;;
81896;SDS011;71360;43.506;1.500;2024-01-25T11:12:14;48.60;;;9.63;;
81896;SDS011;71360;43.506;1.500;2024-01-25T11:14:41;21.73;;;9.52;;
81896;SDS011;71360;43.506;1.500;2024-01-25T11:17:18;28.27;;;9.80;;
81896;SDS011;71360;43.506;1.500;2024-01-25T11:19:44;51.80;;;10.10;;
81896;SDS011;71360;43.506;1.500;2024-01-25T11:22:10;21.77;;;9.93;;
81896;SDS011;71360;43.506;1.500;2024-01-25T11:24:39;16.10;;;9.50;;
81896;SDS011;71360;43.506;1.500;2024-01-25T11:27:04;20.90;;;10.75;;
81896;SDS011;71360;43.506;1.500;2024-01-25T11:29:31;16.60;;;9.68;;
81896;SDS011;71360;43.506;1.500;2024-01-25T11:31:58;28.23;;;10.53;;
81896;SDS011;71360;43.506;1.500;2024-01-25T11:34:23;16.52;;;10.07;;
81896;SDS011;71360;43.506;1.500;2024-01-25T11:36:49;15.65;;;9.73;;
81896;SDS011;71360;43.506;1.500;2024-01-25T11:39:15;16.60;;;9.70;;
81896;SDS011;71360;43.506;1.500;2024-01-25T11:41:42;15.13;;;9.18;;
81896;SDS011;71360;43.506;1.500;2024-01-25T11:44:09;15.07;;;8.77;;
81896;SDS011;71360;43.506;1.500;2024-01-25T11:46:36;13.38;;;8.63;;
81896;SDS011;71360;43.506;1.500;2024-01-25T11:49:01;13.77;;;8.83;;
81896;SDS011;71360;43.506;1.500;2024-01-25T11:51:27;14.73;;;9.10;;
81896;SDS011;71360;43.506;1.500;2024-01-25T11:57:14;15.93;;;9.90;;
81896;SDS011;71360;43.506;1.500;2024-01-25T11:59:40;17.33;;;9.97;;
81896;SDS011;71360;43.506;1.500;2024-01-25T12:02:05;17.57;;;9.53;;
81896;SDS011;71360;43.506;1.500;2024-01-25T12:04:31;17.42;;;10.32;;
81896;SDS011;71360;43.506;1.500;2024-01-25T12:06:56;14.57;;;8.90;;
81896;SDS011;71360;43.506;1.500;2024-01-25T12:09:22;19.07;;;9.93;;
81896;SDS011;71360;43.506;1.500;2024-01-25T12:11:49;15.93;;;9.60;;
81896;SDS011;71360;43.506;1.500;2024-01-25T12:17:36;15.07;;;9.07;;
81896;SDS011;71360;43.506;1.500;2024-01-25T12:23:32;13.98;;;8.50;;
81896;SDS011;71360;43.506;1.500;2024-01-25T12:26:03;13.65;;;8.80;;
81896;SDS011;71360;43.506;1.500;2024-01-25T12:28:30;15.77;;;8.68;;
81896;SDS011;71360;43.506;1.500;2024-01-25T12:30:58;12.07;;;7.17;;
81896;SDS011;71360;43.506;1.500;2024-01-25T12:33:25;12.73;;;7.97;;
81896;SDS011;71360;43.506;1.500;2024-01-25T12:35:50;14.77;;;8.10;;
81896;SDS011;71360;43.506;1.500;2024-01-25T12:38:16;13.00;;;8.13;;
81896;SDS011;71360;43.506;1.500;2024-01-25T12:40:43;14.50;;;8.18;;
81896;SDS011;71360;43.506;1.500;2024-01-25T12:43:11;11.60;;;7.40;;
81896;SDS011;71360;43.506;1.500;2024-01-25T12:45:37;11.33;;;7.23;;
81896;SDS011;71360;43.506;1.500;2024-01-25T12:48:02;12.03;;;6.33;;
81896;SDS011;71360;43.506;1.500;2024-01-25T12:50:28;11.73;;;6.80;;
81896;SDS011;71360;43.506;1.500;2024-01-25T12:52:54;12.03;;;7.13;;
81896;SDS011;71360;43.506;1.500;2024-01-25T12:55:20;9.57;;;6.15;;
81896;SDS011;71360;43.506;1.500;2024-01-25T12:57:45;9.97;;;5.70;;
81896;SDS011;71360;43.506;1.500;2024-01-25T13:00:11;10.60;;;5.68;;
81896;SDS011;71360;43.506;1.500;2024-01-25T13:02:37;9.50;;;5.93;;
81896;SDS011;71360;43.506;1.500;2024-01-25T13:05:02;8.98;;;5.45;;
81896;SDS011;71360;43.506;1.500;2024-01-25T13:07:28;8.57;;;4.95;;
81896;SDS011;71360;43.506;1.500;2024-01-25T13:09:54;8.63;;;5.30;;
81896;SDS011;71360;43.506;1.500;2024-01-25T13:12:19;8.30;;;4.60;;
81896;SDS011;71360;43.506;1.500;2024-01-25T13:18:06;7.93;;;4.72;;
81896;SDS011;71360;43.506;1.500;2024-01-25T13:20:32;9.53;;;5.50;;
81896;SDS011;71360;43.506;1.500;2024-01-25T13:22:57;9.07;;;5.28;;
81896;SDS011;71360;43.506;1.500;2024-01-25T13:25:23;13.27;;;5.60;;
81896;SDS011;71360;43.506;1.500;2024-01-25T13:27:48;10.07;;;5.57;;
81896;SDS011;71360;43.506;1.500;2024-01-25T13:30:16;9.93;;;5.60;;
81896;SDS011;71360;43.506;1.500;2024-01-25T13:32:42;8.75;;;5.50;;
81896;SDS011;71360;43.506;1.500;2024-01-25T13:35:08;10.07;;;5.43;;
81896;SDS011;71360;43.506;1.500;2024-01-25T13:37:33;7.43;;;4.30;;
81896;SDS011;71360;43.506;1.500;2024-01-25T13:39:59;7.87;;;4.90;;
81896;SDS011;71360;43.506;1.500;2024-01-25T13:42:24;8.23;;;4.47;;
81896;SDS011;71360;43.506;1.500;2024-01-25T13:44:50;8.93;;;4.10;;
81896;SDS011;71360;43.506;1.500;2024-01-25T13:47:15;7.77;;;4.13;;
81896;SDS011;71360;43.506;1.500;2024-01-25T13:49:41;6.50;;;3.70;;
81896;SDS011;71360;43.506;1.500;2024-01-25T13:52:06;6.67;;;4.00;;
81896;SDS011;71360;43.506;1.500;2024-01-25T13:54:32;7.65;;;3.80;;
81896;SDS011;71360;43.506;1.500;2024-01-25T13:56:57;10.33;;;3.50;;
81896;SDS011;71360;43.506;1.500;2024-01-25T13:59:22;7.17;;;3.37;;
81896;SDS011;71360;43.506;1.500;2024-01-25T14:01:50;7.03;;;3.80;;
81896;SDS011;71360;43.506;1.500;2024-01-25T14:04:16;6.80;;;3.60;;
81896;SDS011;71360;43.506;1.500;2024-01-25T14:06:41;6.23;;;3.27;;
81896;SDS011;71360;43.506;1.500;2024-01-25T14:09:08;6.25;;;3.22;;
81896;SDS011;71360;43.506;1.500;2024-01-25T14:11:34;7.37;;;3.47;;
81896;SDS011;71360;43.506;1.500;2024-01-25T14:14:00;6.53;;;3.30;;
81896;SDS011;71360;43.506;1.500;2024-01-25T14:16:25;7.10;;;3.20;;
81896;SDS011;71360;43.506;1.500;2024-01-25T14:18:51;6.77;;;3.00;;
81896;SDS011;71360;43.506;1.500;2024-01-25T14:21:16;6.15;;;3.08;;
81896;SDS011;71360;43.506;1.500;2024-01-25T14:23:45;6.55;;;2.78;;
81896;SDS011;71360;43.506;1.500;2024-01-25T14:26:11;6.47;;;2.57;;
81896;SDS011;71360;43.506;1.500;2024-01-25T14:28:36;8.80;;;2.70;;
81896;SDS011;71360;43.506;1.500;2024-01-25T14:31:02;5.43;;;2.73;;
81896;SDS011;71360;43.506;1.500;2024-01-25T14:33:27;5.22;;;2.40;;
81896;SDS011;71360;43.506;1.500;2024-01-25T14:35:53;5.53;;;2.53;;
81896;SDS011;71360;43.506;1.500;2024-01-25T14:38:18;4.80;;;2.23;;
81896;SDS011;71360;43.506;1.500;2024-01-25T14:40:44;6.25;;;2.35;;
81896;SDS011;71360;43.506;1.500;2024-01-25T14:43:09;8.53;;;2.30;;
81896;SDS011;71360;43.506;1.500;2024-01-25T14:45:35;7.53;;;2.30;;
81896;SDS011;71360;43.506;1.500;2024-01-25T14:48:01;5.78;;;2.13;;
81896;SDS011;71360;43.506;1.500;2024-01-25T14:50:27;4.73;;;2.20;;
81896;SDS011;71360;43.506;1.500;2024-01-25T14:53:08;5.80;;;2.10;;
81896;SDS011;71360;43.506;1.500;2024-01-25T14:55:33;6.47;;;2.50;;
81896;SDS011;71360;43.506;1.500;2024-01-25T14:57:59;6.43;;;2.50;;
81896;SDS011;71360;43.506;1.500;2024-01-25T15:00:25;7.50;;;2.80;;
81896;SDS011;71360;43.506;1.500;2024-01-25T15:02:50;7.78;;;2.70;;
81896;SDS011;71360;43.506;1.500;2024-01-25T15:05:16;9.77;;;3.50;;
81896;SDS011;71360;43.506;1.500;2024-01-25T15:07:41;7.17;;;3.20;;
81896;SDS011;71360;43.506;1.500;2024-01-25T15:10:07;6.22;;;3.00;;
81896;SDS011;71360;43.506;1.500;2024-01-25T15:12:33;9.77;;;3.75;;
81896;SDS011;71360;43.506;1.500;2024-01-25T15:14:59;8.40;;;3.83;;
81896;SDS011;71360;43.506;1.500;2024-01-25T15:17:25;12.63;;;3.95;;
81896;SDS011;71360;43.506;1.500;2024-01-25T15:19:50;8.27;;;3.90;;
81896;SDS011;71360;43.506;1.500;2024-01-25T15:22:15;8.17;;;4.00;;
81896;SDS011;71360;43.506;1.500;2024-01-25T15:24:41;8.23;;;4.00;;
81896;SDS011;71360;43.506;1.500;2024-01-25T15:27:06;6.93;;;3.67;;
81896;SDS011;71360;43.506;1.500;2024-01-25T15:29:32;7.13;;;4.20;;
81896;SDS011;71360;43.506;1.500;2024-01-25T15:32:07;8.13;;;4.05;;
81896;SDS011;71360;43.506;1.500;2024-01-25T15:34:34;8.10;;;4.30;;
81896;SDS011;71360;43.506;1.500;2024-01-25T15:36:59;9.27;;;4.30;;
81896;SDS011;71360;43.506;1.500;2024-01-25T15:39:25;8.80;;;4.23;;
81896;SDS011;71360;43.506;1.500;2024-01-25T15:41:50;11.27;;;4.07;;
81896;SDS011;71360;43.506;1.500;2024-01-25T15:44:18;8.30;;;4.30;;
81896;SDS011;71360;43.506;1.500;2024-01-25T15:46:44;7.70;;;4.25;;
81896;SDS011;71360;43.506;1.500;2024-01-25T15:49:09;7.60;;;4.03;;
81896;SDS011;71360;43.506;1.500;2024-01-25T15:51:35;8.88;;;4.30;;
81896;SDS011;71360;43.506;1.500;2024-01-25T15:54:00;9.80;;;3.70;;
81896;SDS011;71360;43.506;1.500;2024-01-25T15:56:26;7.80;;;4.28;;
81896;SDS011;71360;43.506;1.500;2024-01-25T15:58:52;7.20;;;4.17;;
81896;SDS011;71360;43.506;1.500;2024-01-25T16:01:20;8.27;;;3.97;;